createdAt,value
2018-04-29T00:00:02.645Z,17.09
2018-04-29T00:02:28.615Z,17.16
2018-04-29T00:04:54.569Z,17.03
2018-04-29T00:07:20.506Z,17.01
2018-04-29T00:09:46.450Z,16.91
2018-04-29T00:12:12.403Z,16.60
2018-04-29T00:14:38.363Z,16.77
2018-04-29T00:17:04.335Z,16.69
2018-04-29T00:19:30.329Z,16.85
2018-04-29T00:21:56.289Z,16.82
2018-04-29T00:24:22.241Z,16.91
2018-04-29T00:26:48.201Z,16.92
2018-04-29T00:29:14.197Z,16.85
2018-04-29T00:31:40.143Z,16.85
2018-04-29T00:34:06.224Z,16.82
2018-04-29T00:36:32.190Z,16.96
2018-04-29T00:38:58.154Z,17.03
2018-04-29T00:41:24.143Z,17.19
2018-04-29T00:43:50.065Z,17.21
2018-04-29T00:46:15.996Z,17.18
2018-04-29T00:48:41.959Z,17.12
2018-04-29T00:51:07.909Z,17.13
2018-04-29T00:53:33.839Z,17.18
2018-04-29T00:55:59.805Z,17.07
2018-04-29T00:58:25.791Z,16.95
2018-04-29T01:00:51.713Z,16.71
2018-04-29T01:03:17.649Z,16.64
2018-04-29T01:05:43.582Z,16.49
2018-04-29T01:08:09.529Z,16.34
2018-04-29T01:10:35.493Z,16.11
2018-04-29T01:13:01.457Z,16.23
2018-04-29T01:15:27.453Z,16.12
2018-04-29T01:17:53.406Z,16.17
2018-04-29T01:20:19.352Z,16.34
2018-04-29T01:22:45.307Z,16.34
2018-04-29T01:27:43.610Z,16.82
2018-04-29T01:30:09.587Z,16.86
2018-04-29T01:32:35.533Z,16.53
2018-04-29T01:35:01.487Z,15.96
2018-04-29T01:37:27.426Z,15.93
2018-04-29T01:39:53.380Z,15.91
2018-04-29T01:42:19.337Z,15.99
2018-04-29T01:44:45.297Z,15.78
2018-04-29T01:47:11.229Z,15.90
2018-04-29T01:49:37.166Z,15.71
2018-04-29T01:52:03.117Z,15.86
2018-04-29T01:54:29.174Z,16.22
2018-04-29T01:56:55.151Z,16.30
2018-04-29T01:59:21.083Z,16.25
2018-04-29T02:01:47.022Z,15.99
2018-04-29T02:04:12.983Z,15.83
2018-04-29T02:06:38.945Z,15.83
2018-04-29T02:09:04.869Z,15.94
2018-04-29T02:11:30.823Z,15.97
2018-04-29T02:13:56.788Z,16.07
2018-04-29T02:16:22.776Z,16.19
2018-04-29T02:18:48.735Z,16.40
2018-04-29T02:21:14.685Z,16.21
2018-04-29T02:23:40.666Z,16.23
2018-04-29T02:26:06.615Z,16.23
2018-04-29T02:28:32.560Z,16.38
2018-04-29T02:30:58.494Z,16.40
2018-04-29T02:33:24.430Z,16.24
2018-04-29T02:35:50.370Z,16.14
2018-04-29T02:38:16.317Z,15.90
2018-04-29T02:40:42.283Z,16.00
2018-04-29T02:43:08.217Z,16.03
2018-04-29T02:45:34.162Z,16.13
2018-04-29T02:48:00.154Z,15.76
2018-04-29T02:50:26.108Z,15.86
2018-04-29T02:52:52.053Z,15.97
2018-04-29T02:55:17.985Z,15.90
2018-04-29T02:57:43.928Z,15.68
2018-04-29T03:00:09.891Z,15.34
2018-04-29T03:02:35.848Z,15.35
2018-04-29T03:05:01.783Z,15.13
2018-04-29T03:07:27.723Z,15.28
2018-04-29T03:09:53.698Z,15.41
2018-04-29T03:12:19.649Z,15.35
2018-04-29T03:14:45.628Z,15.12
2018-04-29T03:17:11.564Z,15.16
2018-04-29T03:19:37.515Z,15.53
2018-04-29T03:22:03.463Z,15.25
2018-04-29T03:24:29.429Z,15.33
2018-04-29T03:26:55.382Z,15.27
2018-04-29T03:29:21.336Z,15.50
2018-04-29T03:31:47.280Z,15.66
2018-04-29T03:34:13.257Z,15.66
2018-04-29T03:36:39.201Z,15.51
2018-04-29T03:39:05.140Z,15.46
2018-04-29T03:41:31.116Z,15.33
2018-04-29T03:43:57.078Z,15.15
2018-04-29T03:46:23.017Z,15.15
2018-04-29T03:48:48.965Z,15.13
2018-04-29T03:51:14.953Z,15.36
2018-04-29T03:53:40.960Z,15.32
2018-04-29T03:56:07.028Z,15.14
2018-04-29T03:58:32.884Z,15.31
2018-04-29T04:00:58.841Z,15.51
2018-04-29T04:03:24.819Z,15.62
2018-04-29T04:05:50.769Z,15.60
2018-04-29T04:08:16.726Z,15.73
2018-04-29T04:10:42.722Z,15.43
2018-04-29T04:13:08.680Z,15.56
2018-04-29T04:15:34.635Z,15.41
2018-04-29T04:18:00.600Z,15.64
2018-04-29T04:20:26.553Z,15.35
2018-04-29T04:22:52.511Z,15.50
2018-04-29T04:25:18.482Z,15.11
2018-04-29T04:27:44.468Z,15.26
2018-04-29T04:30:10.415Z,15.29
2018-04-29T04:32:36.359Z,15.02
2018-04-29T04:35:02.307Z,15.18
2018-04-29T04:37:28.262Z,15.46
2018-04-29T04:39:54.223Z,15.79
2018-04-29T04:42:20.180Z,15.90
2018-04-29T04:44:46.248Z,15.65
2018-04-29T04:47:12.251Z,15.42
2018-04-29T04:49:38.295Z,15.42
2018-04-29T04:52:04.304Z,15.58
2018-04-29T04:54:30.282Z,15.81
2018-04-29T04:56:56.373Z,15.78
2018-04-29T04:59:22.382Z,16.00
2018-04-29T05:01:48.328Z,16.15
2018-04-29T05:04:14.535Z,15.85
2018-04-29T05:06:40.462Z,15.97
2018-04-29T05:09:06.497Z,16.21
2018-04-29T05:11:32.429Z,16.49
2018-04-29T05:13:58.441Z,16.72
2018-04-29T05:16:24.463Z,16.85
2018-04-29T05:18:50.421Z,16.95
2018-04-29T05:21:16.414Z,16.97
2018-04-29T05:23:42.365Z,17.11
2018-04-29T05:26:08.644Z,17.25
2018-04-29T05:28:34.581Z,17.36
2018-04-29T05:31:00.521Z,17.41
2018-04-29T05:33:26.453Z,17.49
2018-04-29T05:35:52.389Z,17.59
2018-04-29T05:38:18.358Z,17.66
2018-04-29T05:40:44.302Z,17.49
2018-04-29T05:43:10.275Z,17.65
2018-04-29T05:45:36.229Z,17.85
2018-04-29T05:48:02.191Z,17.91
2018-04-29T05:50:28.112Z,18.09
2018-04-29T05:52:54.045Z,18.15
2018-04-29T05:55:20.055Z,18.23
2018-04-29T05:57:45.980Z,18.37
2018-04-29T06:00:11.970Z,18.43
2018-04-29T06:02:37.956Z,18.43
2018-04-29T06:05:03.896Z,18.48
2018-04-29T06:07:29.856Z,18.56
2018-04-29T06:09:55.829Z,18.65
2018-04-29T06:12:21.762Z,18.64
2018-04-29T06:14:47.698Z,18.85
2018-04-29T06:17:13.839Z,18.97
2018-04-29T06:19:39.784Z,19.06
2018-04-29T06:22:05.755Z,18.95
2018-04-29T06:24:31.714Z,18.96
2018-04-29T06:26:57.715Z,19.07
2018-04-29T06:29:23.679Z,19.18
2018-04-29T06:31:49.698Z,19.28
2018-04-29T06:34:15.614Z,19.43
2018-04-29T06:36:41.587Z,19.41
2018-04-29T06:39:07.558Z,19.47
2018-04-29T06:41:33.538Z,19.52
2018-04-29T06:43:59.569Z,19.82
2018-04-29T06:46:25.577Z,19.68
2018-04-29T06:48:51.533Z,19.59
2018-04-29T06:51:17.492Z,19.70
2018-04-29T06:53:43.428Z,19.32
2018-04-29T06:56:09.408Z,19.90
2018-04-29T06:58:35.355Z,20.23
2018-04-29T07:01:01.336Z,20.14
2018-04-29T07:03:27.285Z,20.16
2018-04-29T07:05:53.259Z,20.24
2018-04-29T07:08:19.201Z,19.80
2018-04-29T07:10:45.153Z,20.26
2018-04-29T07:13:11.113Z,20.57
2018-04-29T07:15:37.049Z,20.59
2018-04-29T07:18:03.004Z,20.88
2018-04-29T07:20:28.972Z,20.86
2018-04-29T07:22:54.914Z,20.93
2018-04-29T07:25:20.876Z,21.07
2018-04-29T07:27:46.840Z,21.48
2018-04-29T07:30:12.807Z,21.45
2018-04-29T07:32:38.760Z,21.94
2018-04-29T07:35:04.710Z,21.89
2018-04-29T07:37:30.688Z,21.81
2018-04-29T07:39:56.718Z,21.61
2018-04-29T07:42:22.641Z,21.80
2018-04-29T07:44:48.650Z,21.78
2018-04-29T07:47:14.634Z,21.54
2018-04-29T07:49:40.602Z,21.47
2018-04-29T07:52:06.562Z,21.57
2018-04-29T07:54:32.540Z,21.58
2018-04-29T07:56:58.473Z,21.40
2018-04-29T07:59:24.394Z,21.63
2018-04-29T08:01:50.370Z,22.01
2018-04-29T08:04:16.306Z,22.35
2018-04-29T08:06:42.271Z,22.27
2018-04-29T08:09:08.194Z,22.13
2018-04-29T08:11:34.173Z,22.29
2018-04-29T08:14:00.130Z,22.47
2018-04-29T08:16:26.081Z,22.14
2018-04-29T08:18:52.034Z,22.14
2018-04-29T08:21:18.002Z,22.43
2018-04-29T08:23:43.997Z,22.13
2018-04-29T08:26:09.930Z,22.12
2018-04-29T08:28:35.905Z,22.49
2018-04-29T08:31:01.832Z,22.50
2018-04-29T08:33:27.772Z,21.69
2018-04-29T08:35:53.723Z,21.10
2018-04-29T08:38:19.691Z,21.43
2018-04-29T08:40:45.673Z,21.29
2018-04-29T08:43:11.769Z,21.41
2018-04-29T08:45:37.672Z,21.57
2018-04-29T08:48:03.614Z,21.38
2018-04-29T08:50:29.591Z,21.72
2018-04-29T08:52:55.600Z,21.34
2018-04-29T08:55:21.707Z,21.51
2018-04-29T08:57:47.677Z,21.48
2018-04-29T09:00:13.627Z,21.75
2018-04-29T09:02:39.593Z,21.56
2018-04-29T09:05:05.552Z,21.41
2018-04-29T09:07:31.511Z,21.64
2018-04-29T09:09:57.489Z,21.86
2018-04-29T09:12:23.441Z,21.32
2018-04-29T09:14:49.456Z,21.38
2018-04-29T09:17:15.384Z,21.69
2018-04-29T09:19:41.449Z,21.83
2018-04-29T09:22:07.395Z,21.88
2018-04-29T09:24:33.372Z,21.70
2018-04-29T09:26:59.369Z,21.78
2018-04-29T09:29:25.338Z,21.26
2018-04-29T09:31:55.645Z,21.33
2018-04-29T09:34:21.565Z,21.73
2018-04-29T09:36:47.518Z,21.61
2018-04-29T09:39:13.480Z,21.69
2018-04-29T09:41:39.440Z,21.67
2018-04-29T09:44:05.373Z,21.86
2018-04-29T09:46:31.344Z,21.82
2018-04-29T09:48:57.282Z,21.76
2018-04-29T09:51:23.255Z,21.95
2018-04-29T09:53:49.185Z,21.61
2018-04-29T09:56:15.149Z,21.40
2018-04-29T11:16:37.564Z,21.37
2018-04-29T11:19:03.521Z,21.33
2018-04-29T11:21:29.480Z,21.45
2018-04-29T11:23:55.536Z,21.58
2018-04-29T11:26:21.476Z,21.54
2018-04-29T11:28:47.477Z,21.72
2018-04-29T11:31:13.444Z,21.64
2018-04-29T11:33:39.404Z,21.70
2018-04-29T11:36:05.365Z,21.61
2018-04-29T11:38:31.378Z,21.61
2018-04-29T11:40:57.322Z,21.72
2018-04-29T11:43:23.263Z,21.89
2018-04-29T11:45:49.254Z,21.85
2018-04-29T11:48:15.222Z,21.85
2018-04-29T11:50:41.259Z,21.63
2018-04-29T11:53:07.275Z,21.72
2018-04-29T11:55:33.228Z,21.75
2018-04-29T11:57:59.193Z,21.80
2018-04-29T12:00:25.166Z,21.80
2018-04-29T12:02:51.110Z,21.78
2018-04-29T12:05:17.104Z,21.59
2018-04-29T12:07:43.059Z,21.71
2018-04-29T12:10:09.033Z,21.51
2018-04-29T12:12:34.973Z,21.53
2018-04-29T12:15:00.914Z,21.67
2018-04-29T12:17:26.933Z,21.73
2018-04-29T12:19:52.877Z,21.66
2018-04-29T12:22:18.811Z,21.61
2018-04-29T12:24:44.770Z,21.67
2018-04-29T12:27:10.706Z,21.75
2018-04-29T12:29:36.773Z,21.58
2018-04-29T12:32:02.715Z,21.78
2018-04-29T12:34:28.749Z,21.82
2018-04-29T12:36:54.724Z,21.65
2018-04-29T12:39:21.741Z,21.66
2018-04-29T12:41:47.703Z,21.63
2018-04-29T12:44:13.640Z,21.80
2018-04-29T12:46:39.660Z,21.78
2018-04-29T12:49:05.574Z,21.64
2018-04-29T12:51:31.584Z,21.70
2018-04-29T12:53:57.562Z,21.88
2018-04-29T12:56:23.529Z,21.69
2018-04-29T12:58:49.498Z,21.72
2018-04-29T13:01:15.482Z,21.65
2018-04-29T13:03:41.457Z,21.69
2018-04-29T13:06:07.448Z,21.68
2018-04-29T13:08:33.443Z,21.68
2018-04-29T13:10:59.937Z,21.64
2018-04-29T13:13:25.911Z,21.74
2018-04-29T13:15:51.885Z,21.92
2018-04-29T13:18:17.839Z,21.82
2018-04-29T13:20:43.865Z,21.82
2018-04-29T13:23:09.815Z,21.88
2018-04-29T13:25:35.793Z,21.78
2018-04-29T13:28:01.746Z,21.64
2018-04-29T13:30:27.738Z,21.69
2018-04-29T13:32:53.665Z,21.62
2018-04-29T13:35:19.622Z,21.58
2018-04-29T13:37:45.576Z,21.60
2018-04-29T13:40:11.516Z,21.65
2018-04-29T13:42:37.461Z,21.68
2018-04-29T13:45:03.446Z,21.74
2018-04-29T13:47:29.419Z,21.89
2018-04-29T13:49:55.372Z,21.77
2018-04-29T13:52:21.423Z,21.65
2018-04-29T13:54:47.367Z,21.74
2018-04-29T13:57:13.329Z,21.80
2018-04-29T13:59:39.275Z,21.74
2018-04-29T14:02:05.253Z,21.81
2018-04-29T14:04:31.185Z,21.90
2018-04-29T14:06:57.148Z,21.77
2018-04-29T14:09:23.098Z,21.76
2018-04-29T14:11:49.038Z,21.72
2018-04-29T14:14:14.987Z,22.07
2018-04-29T14:16:40.955Z,22.12
2018-04-29T14:19:06.925Z,22.01
2018-04-29T14:21:32.932Z,21.93
2018-04-29T14:23:58.878Z,22.02
2018-04-29T14:26:24.869Z,21.89
2018-04-29T14:28:50.829Z,21.79
2018-04-29T14:31:16.897Z,21.85
2018-04-29T14:33:42.833Z,21.86
2018-04-29T14:36:08.806Z,21.76
2018-04-29T14:38:34.765Z,21.81
2018-04-29T14:41:00.716Z,21.96
2018-04-29T14:43:26.709Z,22.19
2018-04-29T14:45:52.677Z,22.31
2018-04-29T14:48:18.654Z,22.24
2018-04-29T14:50:44.621Z,22.13
2018-04-29T14:53:10.585Z,22.07
2018-04-29T14:55:36.547Z,22.11
2018-04-29T14:58:02.589Z,22.03
2018-04-29T15:00:28.561Z,21.97
2018-04-29T15:02:54.592Z,21.97
2018-04-29T15:05:20.607Z,22.02
2018-04-29T15:07:46.584Z,21.96
2018-04-29T15:10:12.543Z,22.04
2018-04-29T15:12:38.533Z,21.98
2018-04-29T15:15:04.480Z,22.22
2018-04-29T15:17:30.620Z,22.25
2018-04-29T15:19:56.564Z,22.11
2018-04-29T15:22:22.519Z,22.09
2018-04-29T15:24:48.482Z,22.10
2018-04-29T15:27:14.439Z,22.14
2018-04-29T15:29:40.388Z,22.07
2018-04-29T15:32:06.357Z,22.00
2018-04-29T15:34:32.352Z,21.97
2018-04-29T15:36:58.334Z,22.12
2018-04-29T15:39:24.277Z,22.00
2018-04-29T15:41:50.239Z,22.04
2018-04-29T15:44:16.221Z,21.97
2018-04-29T15:46:42.186Z,22.22
2018-04-29T15:49:08.235Z,22.08
2018-04-29T15:51:34.383Z,22.02
2018-04-29T15:54:00.322Z,22.05
2018-04-29T15:56:26.297Z,22.07
2018-04-29T15:58:52.242Z,22.28
2018-04-29T16:01:18.164Z,22.35
2018-04-29T16:03:44.117Z,22.28
2018-04-29T16:06:10.067Z,22.09
2018-04-29T16:08:35.997Z,22.05
2018-04-29T16:11:01.954Z,22.07
2018-04-29T16:13:27.920Z,22.04
2018-04-29T16:15:53.860Z,22.14
2018-04-29T16:18:19.815Z,22.26
2018-04-29T16:20:45.755Z,22.16
2018-04-29T16:23:11.689Z,22.17
2018-04-29T16:25:37.610Z,22.16
2018-04-29T16:28:03.539Z,22.32
2018-04-29T16:30:29.503Z,22.34
2018-04-29T16:32:55.448Z,22.19
2018-04-29T16:35:21.429Z,22.09
2018-04-29T16:37:47.425Z,22.28
2018-04-29T16:40:13.410Z,22.14
2018-04-29T16:42:39.393Z,22.16
2018-04-29T16:45:05.386Z,22.25
2018-04-29T16:47:31.381Z,22.34
2018-04-29T16:49:57.399Z,22.19
2018-04-29T16:52:23.340Z,22.42
2018-04-29T16:54:49.382Z,22.49
2018-04-29T16:57:15.778Z,22.55
2018-04-29T16:59:41.730Z,22.49
2018-04-29T17:02:07.698Z,22.56
2018-04-29T17:04:33.667Z,22.46
2018-04-29T17:06:59.605Z,22.52
2018-04-29T17:09:25.616Z,22.31
2018-04-29T17:11:51.612Z,22.23
2018-04-29T17:14:17.576Z,22.38
2018-04-29T17:16:43.517Z,22.24
2018-04-29T17:19:09.473Z,22.12
2018-04-29T17:21:35.399Z,22.08
2018-04-29T17:24:01.412Z,22.06
2018-04-29T17:26:27.380Z,22.03
2018-04-29T17:28:53.343Z,22.03
2018-04-29T17:31:19.289Z,22.03
2018-04-29T17:33:46.270Z,22.01
2018-04-29T17:36:12.225Z,22.04
2018-04-29T17:38:38.200Z,22.02
2018-04-29T17:41:05.205Z,22.02
2018-04-29T17:43:31.331Z,22.05
2018-04-29T17:45:57.261Z,22.08
2018-04-29T17:48:23.239Z,22.06
2018-04-29T17:50:50.147Z,22.05
2018-04-29T17:53:16.096Z,22.11
2018-04-29T17:55:42.057Z,22.19
2018-04-29T17:58:08.037Z,22.23
2018-04-29T18:00:34.156Z,22.17
2018-04-29T18:03:00.120Z,22.20
2018-04-29T18:05:26.060Z,22.19
2018-04-29T18:07:52.025Z,22.19
2018-04-29T18:10:17.985Z,22.16
2018-04-29T18:12:43.928Z,22.16
2018-04-29T18:15:09.854Z,22.14
2018-04-29T18:17:35.776Z,22.15
2018-04-29T18:20:01.837Z,22.17
2018-04-29T18:25:00.520Z,22.25
2018-04-29T18:27:26.520Z,22.31
2018-04-29T18:29:52.453Z,22.28
2018-04-29T18:32:18.401Z,22.20
2018-04-29T18:34:44.341Z,22.22
2018-04-29T18:37:10.293Z,22.30
2018-04-29T18:39:37.338Z,22.32
2018-04-29T18:42:03.304Z,22.28
2018-04-29T18:44:29.259Z,22.34
2018-04-29T18:46:55.197Z,22.26
2018-04-29T18:49:21.137Z,22.12
2018-04-29T18:51:47.096Z,22.19
2018-04-29T18:54:13.051Z,22.19
2018-04-29T18:56:42.128Z,22.15
2018-04-29T18:59:08.067Z,22.05
2018-04-29T19:01:34.071Z,22.15
2018-04-29T19:04:00.533Z,22.12
2018-04-29T19:06:26.475Z,22.12
2018-04-29T19:08:52.433Z,22.04
2018-04-29T19:11:18.365Z,21.97
2018-04-29T19:13:44.320Z,21.83
2018-04-29T19:16:10.325Z,21.94
2018-04-29T19:18:36.293Z,21.92
2018-04-29T19:21:02.237Z,21.80
2018-04-29T19:23:28.273Z,21.83
2018-04-29T19:25:54.670Z,21.85
2018-04-29T19:28:20.584Z,21.91
2018-04-29T19:30:46.560Z,21.86
2018-04-29T19:33:12.531Z,21.96
2018-04-29T19:35:38.504Z,21.84
2018-04-29T19:38:04.472Z,21.87
2018-04-29T19:40:30.422Z,21.87
2018-04-29T19:43:01.265Z,21.78
2018-04-29T19:45:27.224Z,21.77
2018-04-29T19:47:53.163Z,21.70
2018-04-29T19:50:19.104Z,21.68
2018-04-29T19:52:45.074Z,21.75
2018-04-29T19:55:11.047Z,21.71
2018-04-29T19:57:36.975Z,21.71
2018-04-29T20:00:02.900Z,21.65
2018-04-29T20:02:28.840Z,21.67
2018-04-29T20:04:54.792Z,21.68
2018-04-29T20:07:20.726Z,21.68
2018-04-29T20:09:46.719Z,21.64
2018-04-29T20:12:12.651Z,21.58
2018-04-29T20:14:38.723Z,21.56
2018-04-29T20:17:04.660Z,21.53
2018-04-29T20:19:30.600Z,21.49
2018-04-29T20:21:56.531Z,21.50
2018-04-29T20:24:22.566Z,21.53
2018-04-29T20:26:48.499Z,21.48
2018-04-29T20:29:14.463Z,21.48
2018-04-29T20:31:40.413Z,21.46
2018-04-29T20:34:06.364Z,21.44
2018-04-29T20:36:32.305Z,21.41
2018-04-29T20:38:58.256Z,21.43
2018-04-29T20:41:24.205Z,21.31
2018-04-29T20:43:50.198Z,21.24
2018-04-29T20:46:16.152Z,21.15
2018-04-29T20:48:42.225Z,21.14
2018-04-29T20:51:08.248Z,21.12
2018-04-29T20:53:34.247Z,21.10
2018-04-29T20:56:02.199Z,21.02
2018-04-29T20:58:28.239Z,20.99
2018-04-29T21:00:54.179Z,20.98
2018-04-29T21:03:20.133Z,21.05
2018-04-29T21:05:46.064Z,21.08
2018-04-29T21:08:11.995Z,21.01
2018-04-29T21:10:37.919Z,20.92
2018-04-29T21:13:03.849Z,20.92
2018-04-29T21:15:29.806Z,20.93
2018-04-29T21:17:55.950Z,20.88
2018-04-29T21:20:21.920Z,20.89
2018-04-29T21:22:47.955Z,20.86
2018-04-29T21:25:14.021Z,20.89
2018-04-29T21:27:40.000Z,20.88
2018-04-29T21:30:05.965Z,20.80
2018-04-29T21:32:31.914Z,20.90
2018-04-29T21:34:57.852Z,20.89
2018-04-29T21:37:23.792Z,20.88
2018-04-29T21:39:49.805Z,20.82
2018-04-29T21:42:15.761Z,20.80
2018-04-29T21:44:41.765Z,20.75
2018-04-29T21:47:07.749Z,20.73
2018-04-29T21:49:33.638Z,20.71
2018-04-29T21:51:59.570Z,20.65
2018-04-29T21:54:25.515Z,20.64
2018-04-29T21:56:51.451Z,20.63
2018-04-29T21:59:17.400Z,20.57
2018-04-29T22:01:43.336Z,20.54
2018-04-29T22:04:09.298Z,20.48
2018-04-29T22:06:35.241Z,20.48
2018-04-29T22:09:01.173Z,20.46
2018-04-29T22:11:27.144Z,20.41
2018-04-29T22:13:53.080Z,20.37
2018-04-29T22:16:19.040Z,20.34
2018-04-29T22:18:44.986Z,20.25
2018-04-29T22:21:10.944Z,20.17
2018-04-29T22:23:36.879Z,20.24
2018-04-29T22:26:02.857Z,20.18
2018-04-29T22:28:28.784Z,20.26
2018-04-29T22:30:54.749Z,20.15
2018-04-29T22:33:20.684Z,20.26
2018-04-29T22:35:46.652Z,20.16
2018-04-29T22:38:12.585Z,20.20
2018-04-29T22:40:38.559Z,20.12
2018-04-29T22:43:04.500Z,20.03
2018-04-29T22:45:30.426Z,20.00
2018-04-29T22:47:56.380Z,20.01
2018-04-29T22:50:22.331Z,19.99
2018-04-29T22:52:48.281Z,19.96
2018-04-29T22:55:14.245Z,19.88
2018-04-29T22:57:40.238Z,19.80
2018-04-29T23:00:06.160Z,19.92
2018-04-29T23:02:32.121Z,19.97
2018-04-29T23:04:58.049Z,20.02
2018-04-29T23:07:23.995Z,20.05
2018-04-29T23:09:49.932Z,20.06
2018-04-29T23:12:15.888Z,19.94
2018-04-29T23:14:41.848Z,19.99
2018-04-29T23:17:07.799Z,20.00
2018-04-29T23:19:33.718Z,20.02
2018-04-29T23:21:59.654Z,19.97
2018-04-29T23:24:25.577Z,19.98
2018-04-29T23:26:51.528Z,19.94
2018-04-29T23:29:17.468Z,19.88
2018-04-29T23:31:43.431Z,19.90
2018-04-29T23:34:09.375Z,19.78
2018-04-29T23:36:35.319Z,19.67
2018-04-29T23:39:01.245Z,19.81
2018-04-29T23:41:27.203Z,19.69
2018-04-29T23:43:53.144Z,19.70
2018-04-29T23:46:19.082Z,19.76
2018-04-29T23:48:45.021Z,19.78
2018-04-29T23:51:10.981Z,19.72
2018-04-29T23:53:36.909Z,19.68
2018-04-29T23:56:02.846Z,19.58
2018-04-29T23:58:28.776Z,19.56
